Gray, Louisiana
Current Conditions -  °F | °C
As of 9:35 PM on Friday 19 Dec 2014 (Local Time) from KHUM Reporting Station
Drizzle Drizzle  
Wind Chill: 51°   Ceiling: 600
Heat Index: 51°   Visibility: 10mi
Dew Point: 50°   Wind: 12mph
Humidity: 97%   Direction: 40°NE
Pressure: 30.07"   Gusts: 16mph
Location:  29.68°N, 90.78°W
Report Text: KHUM 200335Z AUTO 04010G14KT 10SM -DZ OVC006 11/10 A3007 RMK AO2 P0001 T01050100
Loading
Personal Weather Stations






























Interactive Weather Map New forecast layout! Learn more

10-Day Weather Forecast

Advertisements
Track Severe Weather on mobile